^^
Saratoga-Weather Station Historical Data
Daily Summary for June 29, 2020 Units:  Both    English   Metric
Daily Weekly Monthly Yearly Custom
  High: Low: Average:
Temperature: 61.2 °F /  16.2 °C 50.9 °F /  10.5 °C 55.8 °F /  13.2 °C
Dew Point: 57 °F /  13.9 °C 50 °F /  10 °C 53.4 °F /  11.9 °C
Humidity: 97% 83% 93%
Wind Speed: 10.1mph /  16.3km/h - 2.4mph /  3.8km/h
Wind Gust: 13mph /  20.9km/h - -
Wind- - West
Pressure: 30.1 in /  1017.6 hPa 29.9 in /  1012.9 hPa -
Precipitation: 0.13 in /  3.3 mm    
Historical Graphs
 
 
Tabular Data for June 29, 2020
Time Temperature Dew Point Pressure Wind Wind Speed Wind Gust Humidity Rainfall Rate (Hourly) solar
00:02 50.9 °F /  10.5 °C 50 °F /  10 °C 29.9in /  1012.9hPa Calm     97% 0.01in /  0.2mm 0 W/m2
00:07 50.9 °F /  10.5 °C 50 °F /  10 °C 29.9in /  1012.9hPa Calm     97% 0.01in /  0.2mm 0 W/m2
00:12 51.1 °F /  10.6 °C 50.2 °F /  10.1 °C 29.9in /  1012.9hPa Calm     97% 0.01in /  0.2mm 0 W/m2
00:17 51.1 °F /  10.6 °C 50.2 °F /  10.1 °C 29.9in /  1012.9hPa Calm     97% 0.01in /  0.2mm 0 W/m2
00:22 51.1 °F /  10.6 °C 50.2 °F /  10.1 °C 29.9in /  1012.9hPa Calm     97% 0.01in /  0.2mm 0 W/m2
00:27 51.1 °F /  10.6 °C 50.2 °F /  10.1 °C 29.9in /  1012.9hPa Calm     97% 0in /  0.0mm 0 W/m2
00:32 51.1 °F /  10.6 °C 50.2 °F /  10.1 °C 29.9in /  1012.9hPa Calm     97% 0.01in /  0.2mm 0 W/m2
00:37 51.1 °F /  10.6 °C 50.2 °F /  10.1 °C 29.9in /  1012.9hPa Calm     97% 0.01in /  0.2mm 0 W/m2
00:42 51.1 °F /  10.6 °C 50.2 °F /  10.1 °C 29.9in /  1012.9hPa Calm     97% 0.01in /  0.2mm 0 W/m2
00:47 51.3 °F /  10.7 °C 50.4 °F /  10.2 °C 29.9in /  1012.9hPa Calm     97% 0.02in /  0.5mm 0 W/m2
00:52 51.3 °F /  10.7 °C 50.4 °F /  10.2 °C 29.9in /  1012.9hPa Calm     97% 0.02in /  0.5mm 0 W/m2
00:57 51.3 °F /  10.7 °C 50.4 °F /  10.2 °C 29.9in /  1012.9hPa Calm   2mph /  3.2km/h 97% 0.02in /  0.5mm 0 W/m2
01:02 51.3 °F /  10.7 °C 50.4 °F /  10.2 °C 29.9in /  1012.9hPa Calm     97% 0.02in /  0.5mm 0 W/m2
01:07 51.3 °F /  10.7 °C 50.4 °F /  10.2 °C 29.9in /  1012.9hPa Calm   2mph /  3.2km/h 97% 0.02in /  0.5mm 0 W/m2
01:12 51.3 °F /  10.7 °C 50.4 °F /  10.2 °C 29.9in /  1012.9hPa Calm   1mph /  1.6km/h 97% 0.03in /  0.8mm 0 W/m2
01:17 51.4 °F /  10.8 °C 50.5 °F /  10.3 °C 29.9in /  1012.9hPa Calm     97% 0.04in /  1.0mm 0 W/m2
01:22 51.4 °F /  10.8 °C 50.5 °F /  10.3 °C 29.9in /  1012.9hPa West 0.9mph /  1.4km/h 1mph /  1.6km/h 97% 0.04in /  1.0mm 0 W/m2
01:27 51.4 °F /  10.8 °C 50.5 °F /  10.3 °C 29.9in /  1012.9hPa WNW 0.9mph /  1.4km/h 4mph /  6.4km/h 97% 0.04in /  1.0mm 0 W/m2
01:32 51.4 °F /  10.8 °C 50.5 °F /  10.3 °C 29.9in /  1012.9hPa West 0.9mph /  1.4km/h 3mph /  4.8km/h 97% 0.03in /  0.8mm 0 W/m2
01:37 51.6 °F /  10.9 °C 50.7 °F /  10.4 °C 29.9in /  1012.9hPa West 0.9mph /  1.4km/h 2mph /  3.2km/h 97% 0.04in /  1.0mm 0 W/m2
01:42 51.6 °F /  10.9 °C 50.7 °F /  10.4 °C 29.9in /  1012.9hPa West 2mph /  3.2km/h 7mph /  11.3km/h 97% 0.04in /  1.0mm 0 W/m2
01:47 51.8 °F /  11 °C 50.9 °F /  10.5 °C 29.9in /  1012.9hPa WSW 4mph /  6.4km/h 4mph /  6.4km/h 97% 0.03in /  0.8mm 0 W/m2
01:52 52 °F /  11.1 °C 51.1 °F /  10.6 °C 29.9in /  1012.9hPa WSW 0.9mph /  1.4km/h 4mph /  6.4km/h 97% 0.03in /  0.8mm 0 W/m2
01:57 52 °F /  11.1 °C 51.1 °F /  10.6 °C 29.9in /  1012.9hPa WSW 4mph /  6.4km/h 6mph /  9.7km/h 97% 0.02in /  0.5mm 0 W/m2
02:02 52.2 °F /  11.2 °C 51.3 °F /  10.7 °C 29.9in /  1012.9hPa WNW 2mph /  3.2km/h 4mph /  6.4km/h 97% 0.02in /  0.5mm 0 W/m2
02:07 52.2 °F /  11.2 °C 51.3 °F /  10.7 °C 29.9in /  1012.9hPa West 6mph /  9.7km/h 6mph /  9.7km/h 97% 0.02in /  0.5mm 0 W/m2
02:12 52.2 °F /  11.2 °C 51.3 °F /  10.7 °C 29.9in /  1012.9hPa SW 2.9mph /  4.7km/h 8mph /  12.9km/h 97% 0.02in /  0.5mm 0 W/m2
02:17 52.3 °F /  11.3 °C 51.4 °F /  10.8 °C 29.9in /  1012.9hPa WNW 2.9mph /  4.7km/h 12mph /  19.3km/h 97% 0.01in /  0.2mm 0 W/m2
02:22 52.3 °F /  11.3 °C 51.4 °F /  10.8 °C 29.9in /  1012.9hPa West 6mph /  9.7km/h 9mph /  14.5km/h 97% 0.01in /  0.2mm 0 W/m2
02:27 52.5 °F /  11.4 °C 51.6 °F /  10.9 °C 29.9in /  1012.9hPa WNW 6.9mph /  11.1km/h 12mph /  19.3km/h 97% 0.01in /  0.2mm 0 W/m2
02:32 52.5 °F /  11.4 °C 51.6 °F /  10.9 °C 29.9in /  1012.9hPa SW 4.9mph /  7.9km/h 8mph /  12.9km/h 97% 0.01in /  0.2mm 0 W/m2
02:37 52.5 °F /  11.4 °C 51.6 °F /  10.9 °C 29.9in /  1012.9hPa West 6mph /  9.7km/h 10mph /  16.1km/h 97% 0in /  0.0mm 0 W/m2
02:42 52.7 °F /  11.5 °C 51.8 °F /  11 °C 29.9in /  1012.9hPa WNW 2mph /  3.2km/h 12mph /  19.3km/h 97% 0in /  0.0mm 0 W/m2
02:47 52.9 °F /  11.6 °C 52 °F /  11.1 °C 29.9in /  1012.9hPa WNW 4mph /  6.4km/h 10mph /  16.1km/h 97% 0in /  0.0mm 0 W/m2
02:52 52.9 °F /  11.6 °C 52 °F /  11.1 °C 29.9in /  1013.2hPa WNW 4.9mph /  7.9km/h 12mph /  19.3km/h 97% 0in /  0.0mm 0 W/m2
02:57 52.9 °F /  11.6 °C 52 °F /  11.1 °C 29.9in /  1013.2hPa West 2.9mph /  4.7km/h 8mph /  12.9km/h 97% 0in /  0.0mm 0 W/m2
03:03 53.1 °F /  11.7 °C 52.2 °F /  11.2 °C 29.9in /  1013.2hPa WNW 10.1mph /  16.3km/h 12mph /  19.3km/h 97% 0in /  0.0mm 0 W/m2
03:08 53.1 °F /  11.7 °C 52.2 °F /  11.2 °C 29.9in /  1013.2hPa SW 4.9mph /  7.9km/h 9mph /  14.5km/h 97% 0in /  0.0mm 0 W/m2
03:13 53.2 °F /  11.8 °C 52.3 °F /  11.3 °C 29.9in /  1013.2hPa WSW 4.9mph /  7.9km/h 8mph /  12.9km/h 97% 0in /  0.0mm 0 W/m2
03:18 53.2 °F /  11.8 °C 52.3 °F /  11.3 °C 29.9in /  1013.2hPa WNW 4mph /  6.4km/h 8mph /  12.9km/h 97% 0in /  0.0mm 0 W/m2
03:23 53.2 °F /  11.8 °C 52.3 °F /  11.3 °C 29.9in /  1013.2hPa West 6mph /  9.7km/h 10mph /  16.1km/h 97% 0in /  0.0mm 0 W/m2
03:28 53.4 °F /  11.9 °C 52.3 °F /  11.3 °C 29.9in /  1013.2hPa WSW 6.9mph /  11.1km/h 7mph /  11.3km/h 96% 0in /  0.0mm 0 W/m2
03:33 53.4 °F /  11.9 °C 52.3 °F /  11.3 °C 29.9in /  1013.5hPa West 6.9mph /  11.1km/h 10mph /  16.1km/h 96% 0in /  0.0mm 0 W/m2
03:38 53.6 °F /  12 °C 52.5 °F /  11.4 °C 29.9in /  1013.5hPa West 6mph /  9.7km/h 11mph /  17.7km/h 96% 0in /  0.0mm 0 W/m2
03:43 53.8 °F /  12.1 °C 52.9 °F /  11.6 °C 29.9in /  1013.5hPa West 6mph /  9.7km/h 9mph /  14.5km/h 97% 0in /  0.0mm 0 W/m2
03:48 53.8 °F /  12.1 °C 52.7 °F /  11.5 °C 29.9in /  1013.5hPa West 6mph /  9.7km/h 11mph /  17.7km/h 96% 0in /  0.0mm 0 W/m2
03:53 53.8 °F /  12.1 °C 52.7 °F /  11.5 °C 29.9in /  1013.5hPa WNW 2.9mph /  4.7km/h 7mph /  11.3km/h 96% 0in /  0.0mm 0 W/m2
03:58 54 °F /  12.2 °C 52.9 °F /  11.6 °C 29.9in /  1013.5hPa West 4mph /  6.4km/h 10mph /  16.1km/h 96% 0in /  0.0mm 0 W/m2
04:03 54 °F /  12.2 °C 52.9 °F /  11.6 °C 29.9in /  1013.5hPa WNW 2.9mph /  4.7km/h 8mph /  12.9km/h 96% 0in /  0.0mm 0 W/m2
04:08 54 °F /  12.2 °C 52.9 °F /  11.6 °C 29.9in /  1013.5hPa WNW 2.9mph /  4.7km/h 9mph /  14.5km/h 96% 0.01in /  0.2mm 0 W/m2
04:13 54 °F /  12.2 °C 52.9 °F /  11.6 °C 29.9in /  1013.5hPa WSW 4.9mph /  7.9km/h 8mph /  12.9km/h 96% 0.01in /  0.2mm 0 W/m2
04:18 54 °F /  12.2 °C 52.9 °F /  11.6 °C 29.9in /  1013.5hPa WNW 4mph /  6.4km/h 10mph /  16.1km/h 96% 0.01in /  0.2mm 0 W/m2
04:23 54 °F /  12.2 °C 52.9 °F /  11.6 °C 29.9in /  1013.5hPa West 6.9mph /  11.1km/h 8mph /  12.9km/h 96% 0.01in /  0.2mm 0 W/m2
04:28 53.8 °F /  12.1 °C 52.7 °F /  11.5 °C 29.9in /  1013.5hPa West 2mph /  3.2km/h 9mph /  14.5km/h 96% 0.01in /  0.2mm 0 W/m2
04:33 53.8 °F /  12.1 °C 52.7 °F /  11.5 °C 29.9in /  1013.5hPa WSW 4mph /  6.4km/h 8mph /  12.9km/h 96% 0.01in /  0.2mm 0 W/m2
04:38 53.6 °F /  12 °C 52.5 °F /  11.4 °C 29.9in /  1013.5hPa West 4mph /  6.4km/h 10mph /  16.1km/h 96% 0.01in /  0.2mm 0 W/m2
04:43 53.6 °F /  12 °C 52.5 °F /  11.4 °C 29.9in /  1013.5hPa WNW 4.9mph /  7.9km/h 8mph /  12.9km/h 96% 0.01in /  0.2mm 0 W/m2
04:48 53.4 °F /  11.9 °C 52.3 °F /  11.3 °C 29.9in /  1013.9hPa WSW 4.9mph /  7.9km/h 8mph /  12.9km/h 96% 0.01in /  0.2mm 0 W/m2
04:53 53.4 °F /  11.9 °C 52.3 °F /  11.3 °C 29.9in /  1013.9hPa West 4mph /  6.4km/h 8mph /  12.9km/h 96% 0.01in /  0.2mm 0 W/m2
04:58 53.4 °F /  11.9 °C 52.3 °F /  11.3 °C 29.9in /  1013.9hPa SW 2mph /  3.2km/h 8mph /  12.9km/h 96% 0.01in /  0.2mm 0 W/m2
05:03 53.4 °F /  11.9 °C 52.3 °F /  11.3 °C 29.9in /  1013.9hPa West 4mph /  6.4km/h 7mph /  11.3km/h 96% 0.01in /  0.2mm 0 W/m2
05:08 53.4 °F /  11.9 °C 52.3 °F /  11.3 °C 29.9in /  1013.9hPa WSW 2mph /  3.2km/h 10mph /  16.1km/h 96% 0in /  0.0mm 0 W/m2
05:13 53.4 °F /  11.9 °C 52.3 °F /  11.3 °C 29.9in /  1013.9hPa WNW 2.9mph /  4.7km/h 8mph /  12.9km/h 96% 0in /  0.0mm 0 W/m2
05:18 53.4 °F /  11.9 °C 52.3 °F /  11.3 °C 29.9in /  1013.9hPa West 6mph /  9.7km/h 10mph /  16.1km/h 96% 0in /  0.0mm 0 W/m2
05:23 53.2 °F /  11.8 °C 52.2 °F /  11.2 °C 29.9in /  1013.9hPa West 6.9mph /  11.1km/h 8mph /  12.9km/h 96% 0in /  0.0mm 0 W/m2
05:29 53.1 °F /  11.7 °C 51.6 °F /  10.9 °C 30in /  1014.2hPa West 4mph /  6.4km/h 9mph /  14.5km/h 95% 0in /  0.0mm 0 W/m2
05:34 52.9 °F /  11.6 °C 51.4 °F /  10.8 °C 30in /  1014.2hPa West 4mph /  6.4km/h 7mph /  11.3km/h 95% 0.01in /  0.2mm 0 W/m2
05:39 52.9 °F /  11.6 °C 51.4 °F /  10.8 °C 30in /  1014.2hPa WNW 4.9mph /  7.9km/h 9mph /  14.5km/h 95% 0.01in /  0.2mm 0 W/m2
05:44 52.5 °F /  11.4 °C 51.1 °F /  10.6 °C 30in /  1014.2hPa WSW 8.9mph /  14.3km/h 11mph /  17.7km/h 95% 0.01in /  0.2mm 0 W/m2
05:49 52.5 °F /  11.4 °C 51.1 °F /  10.6 °C 30in /  1014.2hPa WNW 4.9mph /  7.9km/h 10mph /  16.1km/h 95% 0.01in /  0.2mm 0 W/m2
05:54 52.5 °F /  11.4 °C 51.1 °F /  10.6 °C 30in /  1014.2hPa WSW 4.9mph /  7.9km/h 8mph /  12.9km/h 95% 0.02in /  0.5mm 0 W/m2
05:59 52.3 °F /  11.3 °C 50.9 °F /  10.5 °C 30in /  1014.2hPa WNW 8.1mph /  13km/h 12mph /  19.3km/h 95% 0.02in /  0.5mm 0 W/m2
06:04 52.3 °F /  11.3 °C 50.9 °F /  10.5 °C 30in /  1014.2hPa West 6.9mph /  11.1km/h 11mph /  17.7km/h 95% 0.02in /  0.5mm 0 W/m2
06:09 52.2 °F /  11.2 °C 50.7 °F /  10.4 °C 30in /  1014.2hPa West 6.9mph /  11.1km/h 11mph /  17.7km/h 95% 0.02in /  0.5mm 0 W/m2
06:14 52.2 °F /  11.2 °C 50.7 °F /  10.4 °C 30in /  1014.2hPa West 8.1mph /  13km/h 13mph /  20.9km/h 95% 0.02in /  0.5mm 0 W/m2
06:19 52.2 °F /  11.2 °C 50.7 °F /  10.4 °C 30in /  1014.2hPa WSW 8.9mph /  14.3km/h 9mph /  14.5km/h 95% 0.02in /  0.5mm 0 W/m2
06:24 52 °F /  11.1 °C 50.5 °F /  10.3 °C 30in /  1014.2hPa WNW 8.1mph /  13km/h 11mph /  17.7km/h 95% 0.02in /  0.5mm 0 W/m2
06:29 52 °F /  11.1 °C 50.5 °F /  10.3 °C 30in /  1014.2hPa WSW 8.1mph /  13km/h 13mph /  20.9km/h 95% 0.02in /  0.5mm 0 W/m2
06:34 52 °F /  11.1 °C 50.5 °F /  10.3 °C 30in /  1014.2hPa West 8.1mph /  13km/h 12mph /  19.3km/h 95% 0.02in /  0.5mm 0 W/m2
06:39 51.8 °F /  11 °C 50.4 °F /  10.2 °C 30in /  1014.6hPa WNW 8.1mph /  13km/h 13mph /  20.9km/h 95% 0.04in /  1.0mm 0 W/m2
06:44 51.8 °F /  11 °C 50.4 °F /  10.2 °C 30in /  1014.6hPa WNW 4.9mph /  7.9km/h 8mph /  12.9km/h 95% 0.04in /  1.0mm 0 W/m2
06:49 51.6 °F /  10.9 °C 50.2 °F /  10.1 °C 30in /  1014.6hPa WNW 6.9mph /  11.1km/h 10mph /  16.1km/h 95% 0.04in /  1.0mm 0 W/m2
06:54 51.6 °F /  10.9 °C 50.2 °F /  10.1 °C 30in /  1014.6hPa WSW 8.9mph /  14.3km/h 11mph /  17.7km/h 95% 0.03in /  0.8mm 0 W/m2
06:59 51.6 °F /  10.9 °C 50.2 °F /  10.1 °C 30in /  1014.6hPa WNW 8.1mph /  13km/h 11mph /  17.7km/h 95% 0.03in /  0.8mm 0 W/m2
07:04 51.6 °F /  10.9 °C 50 °F /  10 °C 30in /  1014.6hPa SW 6.9mph /  11.1km/h 11mph /  17.7km/h 94% 0.03in /  0.8mm 0 W/m2
07:09 51.6 °F /  10.9 °C 50.2 °F /  10.1 °C 30in /  1014.6hPa SW 4.9mph /  7.9km/h 10mph /  16.1km/h 95% 0.03in /  0.8mm 0 W/m2
07:14 51.6 °F /  10.9 °C 50.2 °F /  10.1 °C 30in /  1014.9hPa West 6.9mph /  11.1km/h 11mph /  17.7km/h 95% 0.03in /  0.8mm 0 W/m2
07:19 51.4 °F /  10.8 °C 50 °F /  10 °C 30in /  1014.9hPa NW 8.9mph /  14.3km/h 11mph /  17.7km/h 95% 0.03in /  0.8mm 0 W/m2
07:24 51.4 °F /  10.8 °C 50 °F /  10 °C 30in /  1014.9hPa WNW 6mph /  9.7km/h 9mph /  14.5km/h 95% 0.03in /  0.8mm 0 W/m2
07:29 51.4 °F /  10.8 °C 50 °F /  10 °C 30in /  1014.9hPa WSW 6.9mph /  11.1km/h 9mph /  14.5km/h 95% 0.03in /  0.8mm 0 W/m2
07:34 51.4 °F /  10.8 °C 50 °F /  10 °C 30in /  1014.9hPa West 6.9mph /  11.1km/h 9mph /  14.5km/h 95% 0.02in /  0.5mm 0 W/m2
07:39 51.4 °F /  10.8 °C 50 °F /  10 °C 30in /  1015.2hPa West 6mph /  9.7km/h 12mph /  19.3km/h 95% 0.01in /  0.2mm 0 W/m2
07:44 51.4 °F /  10.8 °C 50 °F /  10 °C 30in /  1015.2hPa West 6.9mph /  11.1km/h 8mph /  12.9km/h 95% 0.02in /  0.5mm 0 W/m2
07:49 51.4 °F /  10.8 °C 50 °F /  10 °C 30in /  1015.2hPa West 2mph /  3.2km/h 13mph /  20.9km/h 95% 0.02in /  0.5mm 0 W/m2
07:54 51.6 °F /  10.9 °C 50.2 °F /  10.1 °C 30in /  1015.2hPa NW 2.9mph /  4.7km/h 9mph /  14.5km/h 95% 0.02in /  0.5mm 0 W/m2
07:59 51.6 °F /  10.9 °C 50.2 °F /  10.1 °C 30in /  1015.2hPa WSW 4.9mph /  7.9km/h 12mph /  19.3km/h 95% 0.02in /  0.5mm 5 W/m2
08:04 51.6 °F /  10.9 °C 50.2 °F /  10.1 °C 30in /  1015.2hPa West 2.9mph /  4.7km/h 6mph /  9.7km/h 95% 0.02in /  0.5mm 7 W/m2
08:09 51.6 °F /  10.9 °C 50.2 °F /  10.1 °C 30in /  1015.6hPa WNW 2.9mph /  4.7km/h 9mph /  14.5km/h 95% 0.02in /  0.5mm 7 W/m2
08:14 51.6 °F /  10.9 °C 50.2 °F /  10.1 °C 30in /  1015.6hPa WNW 6mph /  9.7km/h 11mph /  17.7km/h 95% 0.02in /  0.5mm 9 W/m2
08:19 51.8 °F /  11 °C 50.4 °F /  10.2 °C 30in /  1015.6hPa WNW 4mph /  6.4km/h 10mph /  16.1km/h 95% 0.02in /  0.5mm 11 W/m2
08:24 52 °F /  11.1 °C 50.5 °F /  10.3 °C 30in /  1015.6hPa West 6.9mph /  11.1km/h 7mph /  11.3km/h 95% 0.02in /  0.5mm 9 W/m2
08:29 52 °F /  11.1 °C 50.5 °F /  10.3 °C 30in /  1015.6hPa WNW 2mph /  3.2km/h 7mph /  11.3km/h 95% 0.02in /  0.5mm 11 W/m2
08:34 52 °F /  11.1 °C 50.5 °F /  10.3 °C 30in /  1015.9hPa West 4mph /  6.4km/h 7mph /  11.3km/h 95% 0.02in /  0.5mm 12 W/m2
08:39 52.2 °F /  11.2 °C 50.7 °F /  10.4 °C 30in /  1015.6hPa WSW 2.9mph /  4.7km/h 8mph /  12.9km/h 95% 0.02in /  0.5mm 16 W/m2
08:44 52.2 °F /  11.2 °C 50.7 °F /  10.4 °C 30in /  1015.9hPa WSW 2.9mph /  4.7km/h 6mph /  9.7km/h 95% 0.01in /  0.2mm 14 W/m2
08:49 52.2 °F /  11.2 °C 50.7 °F /  10.4 °C 30in /  1015.9hPa SW 0.9mph /  1.4km/h 2mph /  3.2km/h 95% 0in /  0.0mm 14 W/m2
08:54 52.2 °F /  11.2 °C 50.7 °F /  10.4 °C 30in /  1015.9hPa NW 2mph /  3.2km/h 4mph /  6.4km/h 95% 0in /  0.0mm 16 W/m2
08:59 52.2 °F /  11.2 °C 50.7 °F /  10.4 °C 30in /  1016.3hPa WSW 0.9mph /  1.4km/h 5mph /  8km/h 95% 0in /  0.0mm 16 W/m2
09:04 52.3 °F /  11.3 °C 50.9 °F /  10.5 °C 30in /  1016.3hPa Calm     95% 0in /  0.0mm 16 W/m2
09:09 52.3 °F /  11.3 °C 50.9 °F /  10.5 °C 30in /  1016.3hPa Calm   5mph /  8km/h 95% 0in /  0.0mm 18 W/m2
09:14 52.3 °F /  11.3 °C 50.9 °F /  10.5 °C 30in /  1016.3hPa Calm   3mph /  4.8km/h 95% 0in /  0.0mm 21 W/m2
09:19 52.3 °F /  11.3 °C 50.9 °F /  10.5 °C 30in /  1016.3hPa Calm     95% 0in /  0.0mm 19 W/m2
09:24 52.3 °F /  11.3 °C 50.9 °F /  10.5 °C 30in /  1016.3hPa West 0.9mph /  1.4km/h 2mph /  3.2km/h 95% 0in /  0.0mm 18 W/m2
09:29 52.3 °F /  11.3 °C 50.9 °F /  10.5 °C 30in /  1016.3hPa Calm   3mph /  4.8km/h 95% 0in /  0.0mm 19 W/m2
09:34 52.3 °F /  11.3 °C 50.9 °F /  10.5 °C 30in /  1016.6hPa Calm   1mph /  1.6km/h 95% 0in /  0.0mm 19 W/m2
09:39 52.5 °F /  11.4 °C 51.1 °F /  10.6 °C 30in /  1016.6hPa Calm   1mph /  1.6km/h 95% 0in /  0.0mm 21 W/m2
09:44 52.5 °F /  11.4 °C 51.1 °F /  10.6 °C 30in /  1016.6hPa Calm     95% 0in /  0.0mm 26 W/m2
09:49 52.5 °F /  11.4 °C 51.1 °F /  10.6 °C 30in /  1016.6hPa Calm     95% 0in /  0.0mm 30 W/m2
09:54 52.5 °F /  11.4 °C 51.1 °F /  10.6 °C 30in /  1016.6hPa NNW 2.9mph /  4.7km/h 3mph /  4.8km/h 95% 0in /  0.0mm 28 W/m2
09:59 52.7 °F /  11.5 °C 51.3 °F /  10.7 °C 30in /  1016.9hPa Calm   3mph /  4.8km/h 95% 0in /  0.0mm 35 W/m2
10:04 52.7 °F /  11.5 °C 51.3 °F /  10.7 °C 30in /  1016.9hPa WNW 0.9mph /  1.4km/h 3mph /  4.8km/h 95% 0in /  0.0mm 39 W/m2
10:09 52.9 °F /  11.6 °C 51.4 °F /  10.8 °C 30in /  1016.9hPa Calm   2mph /  3.2km/h 95% 0in /  0.0mm 35 W/m2
10:14 52.9 °F /  11.6 °C 51.4 °F /  10.8 °C 30in /  1016.9hPa West 2mph /  3.2km/h 4mph /  6.4km/h 95% 0in /  0.0mm 33 W/m2
10:19 52.9 °F /  11.6 °C 51.3 °F /  10.7 °C 30in /  1016.9hPa Calm   6mph /  9.7km/h 94% 0in /  0.0mm 30 W/m2
10:24 52.9 °F /  11.6 °C 51.3 °F /  10.7 °C 30in /  1016.9hPa SW 0.9mph /  1.4km/h 2mph /  3.2km/h 94% 0in /  0.0mm 32 W/m2
10:29 52.9 °F /  11.6 °C 51.3 °F /  10.7 °C 30in /  1016.9hPa SW 0.9mph /  1.4km/h 5mph /  8km/h 94% 0in /  0.0mm 39 W/m2
10:34 53.1 °F /  11.7 °C 51.6 °F /  10.9 °C 30in /  1016.9hPa Calm   2mph /  3.2km/h 95% 0in /  0.0mm 47 W/m2
10:39 53.1 °F /  11.7 °C 51.6 °F /  10.9 °C 30in /  1016.9hPa SW 0.9mph /  1.4km/h 1mph /  1.6km/h 95% 0in /  0.0mm 69 W/m2
10:44 53.2 °F /  11.8 °C 51.8 °F /  11 °C 30in /  1016.9hPa Calm     95% 0in /  0.0mm 84 W/m2
10:49 53.2 °F /  11.8 °C 51.8 °F /  11 °C 30in /  1017.3hPa WNW 2.9mph /  4.7km/h 3mph /  4.8km/h 95% 0in /  0.0mm 88 W/m2
10:54 53.2 °F /  11.8 °C 51.8 °F /  11 °C 30in /  1017.3hPa Calm   1mph /  1.6km/h 95% 0in /  0.0mm 76 W/m2
10:59 53.4 °F /  11.9 °C 52 °F /  11.1 °C 30in /  1017.3hPa Calm     95% 0in /  0.0mm 72 W/m2
11:04 53.8 °F /  12.1 °C 52.3 °F /  11.3 °C 30in /  1017.3hPa Calm     95% 0in /  0.0mm 84 W/m2
11:09 53.8 °F /  12.1 °C 52.3 °F /  11.3 °C 30in /  1017.3hPa WNW 0.9mph /  1.4km/h 4mph /  6.4km/h 95% 0in /  0.0mm 91 W/m2
11:14 53.8 °F /  12.1 °C 52.2 °F /  11.2 °C 30in /  1017.3hPa WNW 4mph /  6.4km/h 4mph /  6.4km/h 94% 0in /  0.0mm 93 W/m2
11:19 54 °F /  12.2 °C 52.3 °F /  11.3 °C 30in /  1017.3hPa Calm   3mph /  4.8km/h 94% 0in /  0.0mm 109 W/m2
11:24 54.1 °F /  12.3 °C 52.5 °F /  11.4 °C 30in /  1017.3hPa West 2mph /  3.2km/h 3mph /  4.8km/h 94% 0in /  0.0mm 107 W/m2
11:29 54.3 °F /  12.4 °C 52.7 °F /  11.5 °C 30in /  1017.3hPa Calm   1mph /  1.6km/h 94% 0in /  0.0mm 130 W/m2
11:34 54.5 °F /  12.5 °C 52.9 °F /  11.6 °C 30in /  1017.3hPa West 0.9mph /  1.4km/h 2mph /  3.2km/h 94% 0in /  0.0mm 156 W/m2
11:39 54.7 °F /  12.6 °C 53.1 °F /  11.7 °C 30in /  1017.3hPa Calm   2mph /  3.2km/h 94% 0in /  0.0mm 172 W/m2
11:44 54.9 °F /  12.7 °C 53.2 °F /  11.8 °C 30in /  1017.3hPa WNW 0.9mph /  1.4km/h 3mph /  4.8km/h 94% 0in /  0.0mm 186 W/m2
11:49 55.2 °F /  12.9 °C 53.2 °F /  11.8 °C 30in /  1017.3hPa WNW 2mph /  3.2km/h 2mph /  3.2km/h 93% 0in /  0.0mm 190 W/m2
11:54 55.4 °F /  13 °C 53.4 °F /  11.9 °C 30.1in /  1017.6hPa South 0.9mph /  1.4km/h 2mph /  3.2km/h 93% 0in /  0.0mm 142 W/m2
11:59 55.8 °F /  13.2 °C 53.8 °F /  12.1 °C 30.1in /  1017.6hPa Calm   2mph /  3.2km/h 93% 0in /  0.0mm 111 W/m2
12:04 55.8 °F /  13.2 °C 53.4 °F /  11.9 °C 30in /  1017.3hPa West 0.9mph /  1.4km/h 4mph /  6.4km/h 92% 0in /  0.0mm 98 W/m2
12:09 55.8 °F /  13.2 °C 53.4 °F /  11.9 °C 30.1in /  1017.6hPa Calm   1mph /  1.6km/h 92% 0in /  0.0mm 90 W/m2
12:14 55.9 °F /  13.3 °C 53.6 °F /  12 °C 30in /  1017.3hPa WNW 0.9mph /  1.4km/h 3mph /  4.8km/h 92% 0in /  0.0mm 88 W/m2
12:19 55.9 °F /  13.3 °C 53.6 °F /  12 °C 30.1in /  1017.6hPa West 0.9mph /  1.4km/h 3mph /  4.8km/h 92% 0in /  0.0mm 98 W/m2
12:24 55.9 °F /  13.3 °C 53.6 °F /  12 °C 30in /  1017.3hPa SW 0.9mph /  1.4km/h 2mph /  3.2km/h 92% 0in /  0.0mm 105 W/m2
12:29 55.9 °F /  13.3 °C 53.6 °F /  12 °C 30in /  1017.3hPa WNW 0.9mph /  1.4km/h 1mph /  1.6km/h 92% 0in /  0.0mm 116 W/m2
12:34 55.9 °F /  13.3 °C 53.4 °F /  11.9 °C 30in /  1017.3hPa West 4mph /  6.4km/h 5mph /  8km/h 91% 0in /  0.0mm 125 W/m2
12:39 55.9 °F /  13.3 °C 53.4 °F /  11.9 °C 30.1in /  1017.6hPa NW 4mph /  6.4km/h 4mph /  6.4km/h 91% 0in /  0.0mm 151 W/m2
12:44 56.1 °F /  13.4 °C 53.8 °F /  12.1 °C 30in /  1017.3hPa WNW 2.9mph /  4.7km/h 5mph /  8km/h 92% 0in /  0.0mm 178 W/m2
12:53 56.5 °F /  13.6 °C 54.1 °F /  12.3 °C 30.1in /  1017.6hPa West 2mph /  3.2km/h 4mph /  6.4km/h 92% 0in /  0.0mm 250 W/m2
12:58 56.7 °F /  13.7 °C 54.3 °F /  12.4 °C 30.1in /  1017.6hPa SSW 2.9mph /  4.7km/h 4mph /  6.4km/h 92% 0in /  0.0mm 223 W/m2
13:03 57 °F /  13.9 °C 54.5 °F /  12.5 °C 30.1in /  1017.6hPa WNW 0.9mph /  1.4km/h 5mph /  8km/h 91% 0in /  0.0mm 230 W/m2
13:08 57.2 °F /  14 °C 54.7 °F /  12.6 °C 30.1in /  1017.6hPa NW 2.9mph /  4.7km/h 8mph /  12.9km/h 91% 0in /  0.0mm 251 W/m2
13:13 57.6 °F /  14.2 °C 55 °F /  12.8 °C 30.1in /  1017.6hPa WNW 2mph /  3.2km/h 3mph /  4.8km/h 91% 0in /  0.0mm 278 W/m2
13:18 57.6 °F /  14.2 °C 54.3 °F /  12.4 °C 30.1in /  1017.6hPa WNW 2mph /  3.2km/h 8mph /  12.9km/h 89% 0in /  0.0mm 290 W/m2
13:23 57.7 °F /  14.3 °C 54.9 °F /  12.7 °C 30.1in /  1017.6hPa WNW 4.9mph /  7.9km/h 8mph /  12.9km/h 90% 0in /  0.0mm 341 W/m2
13:28 57.9 °F /  14.4 °C 54.7 °F /  12.6 °C 30.1in /  1017.6hPa WNW 2.9mph /  4.7km/h 7mph /  11.3km/h 89% 0in /  0.0mm 322 W/m2
13:33 58.3 °F /  14.6 °C 55 °F /  12.8 °C 30.1in /  1017.6hPa SW 2mph /  3.2km/h 7mph /  11.3km/h 89% 0in /  0.0mm 367 W/m2
13:38 58.6 °F /  14.8 °C 55 °F /  12.8 °C 30.1in /  1017.6hPa NW 2.9mph /  4.7km/h 8mph /  12.9km/h 88% 0in /  0.0mm 390 W/m2
13:43 59.2 °F /  15.1 °C 55.9 °F /  13.3 °C 30.1in /  1017.6hPa WNW 4mph /  6.4km/h 5mph /  8km/h 89% 0in /  0.0mm 610 W/m2
13:48 59.4 °F /  15.2 °C 55.2 °F /  12.9 °C 30.1in /  1017.6hPa WNW 6.9mph /  11.1km/h 7mph /  11.3km/h 86% 0in /  0.0mm 299 W/m2
13:53 59.4 °F /  15.2 °C 55.2 °F /  12.9 °C 30in /  1017.3hPa West 2.9mph /  4.7km/h 6mph /  9.7km/h 86% 0in /  0.0mm 260 W/m2
13:58 59.4 °F /  15.2 °C 55.2 °F /  12.9 °C 30.1in /  1017.6hPa West 2.9mph /  4.7km/h 7mph /  11.3km/h 86% 0in /  0.0mm 190 W/m2
14:03 59.5 °F /  15.3 °C 55.6 °F /  13.1 °C 30.1in /  1017.6hPa West 2mph /  3.2km/h 3mph /  4.8km/h 87% 0in /  0.0mm 155 W/m2
14:08 59.4 °F /  15.2 °C 55.2 °F /  12.9 °C 30.1in /  1017.6hPa West 0.9mph /  1.4km/h 4mph /  6.4km/h 86% 0in /  0.0mm 292 W/m2
14:13 59.5 °F /  15.3 °C 55.4 °F /  13 °C 30in /  1017.3hPa NW 4mph /  6.4km/h 5mph /  8km/h 86% 0in /  0.0mm 258 W/m2
14:18 59.5 °F /  15.3 °C 55.4 °F /  13 °C 30in /  1017.3hPa WNW 0.9mph /  1.4km/h 3mph /  4.8km/h 86% 0in /  0.0mm 255 W/m2
14:23 59.9 °F /  15.5 °C 55.8 °F /  13.2 °C 30in /  1017.3hPa Calm   2mph /  3.2km/h 86% 0in /  0.0mm 174 W/m2
14:28 60.1 °F /  15.6 °C 56.1 °F /  13.4 °C 30in /  1017.3hPa WNW 2mph /  3.2km/h 3mph /  4.8km/h 87% 0in /  0.0mm 97 W/m2
14:33 60.3 °F /  15.7 °C 56.1 °F /  13.4 °C 30in /  1017.3hPa NW 0.9mph /  1.4km/h 2mph /  3.2km/h 86% 0in /  0.0mm 118 W/m2
14:38 60.3 °F /  15.7 °C 56.1 °F /  13.4 °C 30in /  1017.3hPa West 0.9mph /  1.4km/h 2mph /  3.2km/h 86% 0in /  0.0mm 190 W/m2
14:43 60.3 °F /  15.7 °C 56.1 °F /  13.4 °C 30in /  1017.3hPa NW 0.9mph /  1.4km/h 3mph /  4.8km/h 86% 0in /  0.0mm 204 W/m2
14:48 60.3 °F /  15.7 °C 55.4 °F /  13 °C 30in /  1017.3hPa Calm   2mph /  3.2km/h 84% 0in /  0.0mm 169 W/m2
14:53 60.3 °F /  15.7 °C 56.1 °F /  13.4 °C 30in /  1017.3hPa Calm   3mph /  4.8km/h 86% 0in /  0.0mm 190 W/m2
14:58 60.4 °F /  15.8 °C 56.3 °F /  13.5 °C 30in /  1017.3hPa WSW 2.9mph /  4.7km/h 4mph /  6.4km/h 86% 0in /  0.0mm 183 W/m2
15:03 60.6 °F /  15.9 °C 56.1 °F /  13.4 °C 30in /  1017.3hPa WNW 2mph /  3.2km/h 3mph /  4.8km/h 85% 0in /  0.0mm 221 W/m2
15:08 60.6 °F /  15.9 °C 56.1 °F /  13.4 °C 30in /  1017.3hPa West 2mph /  3.2km/h 5mph /  8km/h 85% 0in /  0.0mm 134 W/m2
15:14 60.4 °F /  15.8 °C 55.6 °F /  13.1 °C 30in /  1017.3hPa West 2.9mph /  4.7km/h 7mph /  11.3km/h 84% 0in /  0.0mm 141 W/m2
15:19 60.3 °F /  15.7 °C 55.8 °F /  13.2 °C 30in /  1017.3hPa West 6.9mph /  11.1km/h 7mph /  11.3km/h 85% 0in /  0.0mm 165 W/m2
15:24 60.3 °F /  15.7 °C 56.1 °F /  13.4 °C 30in /  1017.3hPa West 2mph /  3.2km/h 3mph /  4.8km/h 86% 0in /  0.0mm 98 W/m2
15:29 60.1 °F /  15.6 °C 55.6 °F /  13.1 °C 30in /  1016.9hPa West 2.9mph /  4.7km/h 3mph /  4.8km/h 85% 0in /  0.0mm 79 W/m2
15:34 60.1 °F /  15.6 °C 55.9 °F /  13.3 °C 30in /  1017.3hPa West 2mph /  3.2km/h 4mph /  6.4km/h 86% 0in /  0.0mm 116 W/m2
15:39 60.1 °F /  15.6 °C 55.9 °F /  13.3 °C 30in /  1017.3hPa SW 2mph /  3.2km/h 6mph /  9.7km/h 86% 0in /  0.0mm 207 W/m2
15:44 60.3 °F /  15.7 °C 56.1 °F /  13.4 °C 30in /  1016.9hPa NNW 4.9mph /  7.9km/h 5mph /  8km/h 86% 0in /  0.0mm 255 W/m2
15:49 60.6 °F /  15.9 °C 56.5 °F /  13.6 °C 30in /  1017.3hPa NW 0.9mph /  1.4km/h 4mph /  6.4km/h 86% 0in /  0.0mm 230 W/m2
15:54 60.8 °F /  16 °C 56.3 °F /  13.5 °C 30in /  1017.3hPa WNW 0.9mph /  1.4km/h 4mph /  6.4km/h 85% 0in /  0.0mm 163 W/m2
15:59 61 °F /  16.1 °C 56.5 °F /  13.6 °C 30in /  1017.3hPa NW 4mph /  6.4km/h 4mph /  6.4km/h 85% 0in /  0.0mm 116 W/m2
16:04 61 °F /  16.1 °C 56.1 °F /  13.4 °C 30in /  1017.3hPa Calm   2mph /  3.2km/h 84% 0in /  0.0mm 181 W/m2
16:09 61 °F /  16.1 °C 56.1 °F /  13.4 °C 30in /  1017.3hPa SSW 2.9mph /  4.7km/h 6mph /  9.7km/h 84% 0in /  0.0mm 167 W/m2
16:14 61 °F /  16.1 °C 56.1 °F /  13.4 °C 30in /  1017.3hPa Calm   4mph /  6.4km/h 84% 0in /  0.0mm 132 W/m2
16:19 61 °F /  16.1 °C 56.1 °F /  13.4 °C 30in /  1017.3hPa West 4mph /  6.4km/h 4mph /  6.4km/h 84% 0in /  0.0mm 107 W/m2
16:24 60.8 °F /  16 °C 55.6 °F /  13.1 °C 30in /  1017.3hPa NW 2mph /  3.2km/h 4mph /  6.4km/h 83% 0in /  0.0mm 72 W/m2
16:29 60.8 °F /  16 °C 55.9 °F /  13.3 °C 30in /  1016.9hPa WNW 2.9mph /  4.7km/h 3mph /  4.8km/h 84% 0in /  0.0mm 60 W/m2
16:34 60.8 °F /  16 °C 56.3 °F /  13.5 °C 30in /  1017.3hPa West 0.9mph /  1.4km/h 4mph /  6.4km/h 85% 0in /  0.0mm 81 W/m2
16:39 60.6 °F /  15.9 °C 56.1 °F /  13.4 °C 30in /  1017.3hPa West 2mph /  3.2km/h 5mph /  8km/h 85% 0in /  0.0mm 93 W/m2
16:44 60.6 °F /  15.9 °C 56.1 °F /  13.4 °C 30in /  1017.3hPa West 4mph /  6.4km/h 6mph /  9.7km/h 85% 0in /  0.0mm 72 W/m2
16:49 60.6 °F /  15.9 °C 56.1 °F /  13.4 °C 30in /  1017.3hPa NNW 2.9mph /  4.7km/h 3mph /  4.8km/h 85% 0in /  0.0mm 86 W/m2
16:54 60.6 °F /  15.9 °C 56.5 °F /  13.6 °C 30in /  1016.9hPa SW 0.9mph /  1.4km/h 2mph /  3.2km/h 86% 0in /  0.0mm 113 W/m2
16:59 60.8 °F /  16 °C 56.3 °F /  13.5 °C 30in /  1016.9hPa Calm   1mph /  1.6km/h 85% 0in /  0.0mm 135 W/m2
17:04 61 °F /  16.1 °C 56.5 °F /  13.6 °C 30in /  1016.9hPa NW 0.9mph /  1.4km/h 3mph /  4.8km/h 85% 0in /  0.0mm 114 W/m2
17:09 61.2 °F /  16.2 °C 56.7 °F /  13.7 °C 30in /  1016.9hPa NNW 0.9mph /  1.4km/h 1mph /  1.6km/h 85% 0in /  0.0mm 98 W/m2
17:19 61.2 °F /  16.2 °C 57 °F /  13.9 °C 30in /  1016.9hPa West 2.9mph /  4.7km/h 4mph /  6.4km/h 86% 0in /  0.0mm 113 W/m2
17:24 61.2 °F /  16.2 °C 56.7 °F /  13.7 °C 30in /  1016.9hPa WNW 2mph /  3.2km/h 3mph /  4.8km/h 85% 0in /  0.0mm 107 W/m2
17:29 61.2 °F /  16.2 °C 55.9 °F /  13.3 °C 30in /  1016.9hPa North 0.9mph /  1.4km/h 4mph /  6.4km/h 83% 0in /  0.0mm 93 W/m2
17:34 61 °F /  16.1 °C 56.1 °F /  13.4 °C 30in /  1016.9hPa WNW 0.9mph /  1.4km/h 2mph /  3.2km/h 84% 0in /  0.0mm 83 W/m2
17:39 61 °F /  16.1 °C 56.1 °F /  13.4 °C 30in /  1017.3hPa Calm   4mph /  6.4km/h 84% 0in /  0.0mm 79 W/m2
17:44 61 °F /  16.1 °C 56.5 °F /  13.6 °C 30in /  1017.3hPa West 2.9mph /  4.7km/h 7mph /  11.3km/h 85% 0in /  0.0mm 81 W/m2
17:49 60.8 °F /  16 °C 56.3 °F /  13.5 °C 30in /  1017.3hPa West 2mph /  3.2km/h 4mph /  6.4km/h 85% 0in /  0.0mm 86 W/m2
17:54 61 °F /  16.1 °C 56.5 °F /  13.6 °C 30in /  1017.3hPa WNW 2mph /  3.2km/h 3mph /  4.8km/h 85% 0in /  0.0mm 69 W/m2
17:59 60.6 °F /  15.9 °C 56.1 °F /  13.4 °C 30in /  1017.3hPa West 2mph /  3.2km/h 6mph /  9.7km/h 85% 0in /  0.0mm 44 W/m2
18:04 60.6 °F /  15.9 °C 56.1 °F /  13.4 °C 30in /  1017.3hPa NW 2mph /  3.2km/h 4mph /  6.4km/h 85% 0in /  0.0mm 30 W/m2
18:09 60.4 °F /  15.8 °C 55.9 °F /  13.3 °C 30in /  1017.3hPa NNW 2mph /  3.2km/h 3mph /  4.8km/h 85% 0in /  0.0mm 26 W/m2
18:14 60.4 °F /  15.8 °C 56.3 °F /  13.5 °C 30in /  1017.3hPa NW 2mph /  3.2km/h 4mph /  6.4km/h 86% 0in /  0.0mm 21 W/m2
18:20 60.3 °F /  15.7 °C 56.1 °F /  13.4 °C 30in /  1017.3hPa Calm   3mph /  4.8km/h 86% 0in /  0.0mm 19 W/m2
18:25 60.3 °F /  15.7 °C 56.1 °F /  13.4 °C 30in /  1017.3hPa West 6.9mph /  11.1km/h 8mph /  12.9km/h 86% 0in /  0.0mm 18 W/m2
18:30 59.9 °F /  15.5 °C 55.9 °F /  13.3 °C 30in /  1017.3hPa WNW 0.9mph /  1.4km/h 2mph /  3.2km/h 87% 0in /  0.0mm 18 W/m2
18:35 59.7 °F /  15.4 °C 56.1 °F /  13.4 °C 30in /  1017.3hPa WNW 2mph /  3.2km/h 8mph /  12.9km/h 88% 0in /  0.0mm 19 W/m2
18:40 59.5 °F /  15.3 °C 55.9 °F /  13.3 °C 30in /  1017.3hPa SW 2mph /  3.2km/h 4mph /  6.4km/h 88% 0in /  0.0mm 16 W/m2
18:45 59.4 °F /  15.2 °C 56.1 °F /  13.4 °C 30in /  1017.3hPa WNW 2.9mph /  4.7km/h 3mph /  4.8km/h 89% 0in /  0.0mm 16 W/m2
18:50 59.2 °F /  15.1 °C 55.9 °F /  13.3 °C 30in /  1017.3hPa West 0.9mph /  1.4km/h 2mph /  3.2km/h 89% 0in /  0.0mm 14 W/m2
18:55 59 °F /  15 °C 56.1 °F /  13.4 °C 30in /  1017.3hPa NW 0.9mph /  1.4km/h 3mph /  4.8km/h 90% 0in /  0.0mm 11 W/m2
19:00 58.8 °F /  14.9 °C 55.9 °F /  13.3 °C 30in /  1017.3hPa WSW 0.9mph /  1.4km/h 2mph /  3.2km/h 90% 0in /  0.0mm 9 W/m2
19:05 58.8 °F /  14.9 °C 55.9 °F /  13.3 °C 30in /  1017.3hPa WNW 0.9mph /  1.4km/h 1mph /  1.6km/h 90% 0in /  0.0mm 7 W/m2
19:10 58.8 °F /  14.9 °C 56.1 °F /  13.4 °C 30in /  1017.3hPa WNW 0.9mph /  1.4km/h 4mph /  6.4km/h 91% 0in /  0.0mm 5 W/m2
19:15 58.6 °F /  14.8 °C 55.9 °F /  13.3 °C 30in /  1017.3hPa NW 2mph /  3.2km/h 4mph /  6.4km/h 91% 0in /  0.0mm 0 W/m2
19:20 58.6 °F /  14.8 °C 55.9 °F /  13.3 °C 30in /  1017.3hPa NW 0.9mph /  1.4km/h 1mph /  1.6km/h 91% 0in /  0.0mm 0 W/m2
19:25 58.6 °F /  14.8 °C 55.9 °F /  13.3 °C 30in /  1017.3hPa Calm   4mph /  6.4km/h 91% 0in /  0.0mm 0 W/m2
19:30 58.6 °F /  14.8 °C 55.9 °F /  13.3 °C 30in /  1017.3hPa NNW 2mph /  3.2km/h 2mph /  3.2km/h 91% 0in /  0.0mm 0 W/m2
19:35 58.6 °F /  14.8 °C 55.9 °F /  13.3 °C 30in /  1017.3hPa NW 2mph /  3.2km/h 3mph /  4.8km/h 91% 0in /  0.0mm 0 W/m2
19:40 58.6 °F /  14.8 °C 55.9 °F /  13.3 °C 30in /  1017.3hPa WNW 2.9mph /  4.7km/h 4mph /  6.4km/h 91% 0in /  0.0mm 0 W/m2
19:45 58.6 °F /  14.8 °C 55.9 °F /  13.3 °C 30in /  1017.3hPa NW 4mph /  6.4km/h 4mph /  6.4km/h 91% 0in /  0.0mm 0 W/m2
19:50 58.6 °F /  14.8 °C 55.9 °F /  13.3 °C 30in /  1017.3hPa WNW 2mph /  3.2km/h 3mph /  4.8km/h 91% 0in /  0.0mm 0 W/m2
19:55 58.6 °F /  14.8 °C 55.9 °F /  13.3 °C 30in /  1017.3hPa WNW 0.9mph /  1.4km/h 4mph /  6.4km/h 91% 0in /  0.0mm 0 W/m2
20:00 58.6 °F /  14.8 °C 55.9 °F /  13.3 °C 30in /  1017.3hPa WNW 2mph /  3.2km/h 4mph /  6.4km/h 91% 0in /  0.0mm 0 W/m2
20:05 58.6 °F /  14.8 °C 55.9 °F /  13.3 °C 30in /  1017.3hPa West 2mph /  3.2km/h 6mph /  9.7km/h 91% 0in /  0.0mm 0 W/m2
20:10 58.6 °F /  14.8 °C 55.9 °F /  13.3 °C 30in /  1017.3hPa WNW 2mph /  3.2km/h 3mph /  4.8km/h 91% 0in /  0.0mm 0 W/m2
20:15 58.6 °F /  14.8 °C 55.9 °F /  13.3 °C 30in /  1017.3hPa Calm   3mph /  4.8km/h 91% 0in /  0.0mm 0 W/m2
20:20 58.6 °F /  14.8 °C 55.9 °F /  13.3 °C 30in /  1017.3hPa WNW 2mph /  3.2km/h 2mph /  3.2km/h 91% 0in /  0.0mm 0 W/m2
20:25 58.5 °F /  14.7 °C 55.8 °F /  13.2 °C 30in /  1017.3hPa West 0.9mph /  1.4km/h 1mph /  1.6km/h 91% 0in /  0.0mm 0 W/m2
20:30 58.5 °F /  14.7 °C 55.8 °F /  13.2 °C 30.1in /  1017.6hPa NW 2mph /  3.2km/h 2mph /  3.2km/h 91% 0in /  0.0mm 0 W/m2
20:35 58.5 °F /  14.7 °C 55.8 °F /  13.2 °C 30.1in /  1017.6hPa Calm   1mph /  1.6km/h 91% 0in /  0.0mm 0 W/m2
20:40 58.5 °F /  14.7 °C 55.8 °F /  13.2 °C 30.1in /  1017.6hPa Calm     91% 0in /  0.0mm 0 W/m2
20:45 58.5 °F /  14.7 °C 55.8 °F /  13.2 °C 30.1in /  1017.6hPa Calm   1mph /  1.6km/h 91% 0in /  0.0mm 0 W/m2
20:50 58.3 °F /  14.6 °C 55.9 °F /  13.3 °C 30.1in /  1017.6hPa Calm   1mph /  1.6km/h 92% 0in /  0.0mm 0 W/m2
20:55 58.3 °F /  14.6 °C 55.9 °F /  13.3 °C 30.1in /  1017.6hPa Calm   1mph /  1.6km/h 92% 0in /  0.0mm 0 W/m2
21:00 58.3 °F /  14.6 °C 55.9 °F /  13.3 °C 30.1in /  1017.6hPa Calm     92% 0in /  0.0mm 0 W/m2
21:05 58.1 °F /  14.5 °C 55.8 °F /  13.2 °C 30in /  1017.3hPa Calm     92% 0in /  0.0mm 0 W/m2
21:10 57.9 °F /  14.4 °C 55.6 °F /  13.1 °C 30in /  1017.3hPa Calm     92% 0in /  0.0mm 0 W/m2
21:15 57.9 °F /  14.4 °C 55.9 °F /  13.3 °C 30in /  1017.3hPa Calm     93% 0in /  0.0mm 0 W/m2
21:20 57.9 °F /  14.4 °C 55.9 °F /  13.3 °C 30.1in /  1017.6hPa Calm     93% 0in /  0.0mm 0 W/m2
21:25 57.7 °F /  14.3 °C 55.8 °F /  13.2 °C 30.1in /  1017.6hPa Calm     93% 0in /  0.0mm 0 W/m2
21:30 57.7 °F /  14.3 °C 55.8 °F /  13.2 °C 30.1in /  1017.6hPa North 0.9mph /  1.4km/h 2mph /  3.2km/h 93% 0in /  0.0mm 0 W/m2
21:35 57.7 °F /  14.3 °C 55.8 °F /  13.2 °C 30.1in /  1017.6hPa Calm   1mph /  1.6km/h 93% 0in /  0.0mm 0 W/m2
21:41 57.7 °F /  14.3 °C 55.8 °F /  13.2 °C 30.1in /  1017.6hPa Calm     93% 0in /  0.0mm 0 W/m2
21:46 57.7 °F /  14.3 °C 55.8 °F /  13.2 °C 30.1in /  1017.6hPa North 0.9mph /  1.4km/h 2mph /  3.2km/h 93% 0in /  0.0mm 0 W/m2
21:51 57.7 °F /  14.3 °C 55.8 °F /  13.2 °C 30.1in /  1017.6hPa Calm   1mph /  1.6km/h 93% 0in /  0.0mm 0 W/m2
21:56 57.7 °F /  14.3 °C 55.9 °F /  13.3 °C 30.1in /  1017.6hPa Calm     94% 0in /  0.0mm 0 W/m2
22:01 57.7 °F /  14.3 °C 55.9 °F /  13.3 °C 30.1in /  1017.6hPa Calm     94% 0in /  0.0mm 0 W/m2
22:06 57.7 °F /  14.3 °C 55.9 °F /  13.3 °C 30.1in /  1017.6hPa Calm   1mph /  1.6km/h 94% 0in /  0.0mm 0 W/m2
22:11 57.7 °F /  14.3 °C 55.9 °F /  13.3 °C 30.1in /  1017.6hPa ENE 0.9mph /  1.4km/h 2mph /  3.2km/h 94% 0in /  0.0mm 0 W/m2
22:16 57.6 °F /  14.2 °C 55.8 °F /  13.2 °C 30.1in /  1017.6hPa Calm   2mph /  3.2km/h 94% 0in /  0.0mm 0 W/m2
22:21 57.6 °F /  14.2 °C 55.8 °F /  13.2 °C 30.1in /  1017.6hPa Calm   1mph /  1.6km/h 94% 0in /  0.0mm 0 W/m2
22:26 57.6 °F /  14.2 °C 55.8 °F /  13.2 °C 30.1in /  1017.6hPa Calm     94% 0in /  0.0mm 0 W/m2
22:31 57.6 °F /  14.2 °C 55.8 °F /  13.2 °C 30.1in /  1017.6hPa Calm     94% 0in /  0.0mm 0 W/m2
22:36 57.6 °F /  14.2 °C 55.8 °F /  13.2 °C 30.1in /  1017.6hPa SSW 0.9mph /  1.4km/h 2mph /  3.2km/h 94% 0in /  0.0mm 0 W/m2
22:41 57.4 °F /  14.1 °C 55.6 °F /  13.1 °C 30.1in /  1017.6hPa Calm   2mph /  3.2km/h 94% 0in /  0.0mm 0 W/m2
22:46 57.4 °F /  14.1 °C 55.6 °F /  13.1 °C 30.1in /  1017.6hPa NW 2mph /  3.2km/h 2mph /  3.2km/h 94% 0in /  0.0mm 0 W/m2
22:51 57.4 °F /  14.1 °C 55.6 °F /  13.1 °C 30.1in /  1017.6hPa NE 0.9mph /  1.4km/h 3mph /  4.8km/h 94% 0in /  0.0mm 0 W/m2
22:56 57.4 °F /  14.1 °C 55.6 °F /  13.1 °C 30.1in /  1017.6hPa East 2.9mph /  4.7km/h 3mph /  4.8km/h 94% 0in /  0.0mm 0 W/m2
23:01 57.4 °F /  14.1 °C 55.6 °F /  13.1 °C 30.1in /  1017.6hPa East 0.9mph /  1.4km/h 2mph /  3.2km/h 94% 0in /  0.0mm 0 W/m2
23:06 57.4 °F /  14.1 °C 55.6 °F /  13.1 °C 30.1in /  1017.6hPa Calm   1mph /  1.6km/h 94% 0in /  0.0mm 0 W/m2
23:11 57.4 °F /  14.1 °C 55.6 °F /  13.1 °C 30.1in /  1017.6hPa Calm   1mph /  1.6km/h 94% 0in /  0.0mm 0 W/m2
23:16 57.4 °F /  14.1 °C 55.6 °F /  13.1 °C 30.1in /  1017.6hPa Calm   2mph /  3.2km/h 94% 0in /  0.0mm 0 W/m2
23:21 57.4 °F /  14.1 °C 55.6 °F /  13.1 °C 30.1in /  1017.6hPa Calm   1mph /  1.6km/h 94% 0in /  0.0mm 0 W/m2
23:26 57.4 °F /  14.1 °C 55.6 °F /  13.1 °C 30in /  1017.3hPa ESE 0.9mph /  1.4km/h 2mph /  3.2km/h 94% 0in /  0.0mm 0 W/m2
23:31 57.4 °F /  14.1 °C 55.6 °F /  13.1 °C 30in /  1017.3hPa Calm   2mph /  3.2km/h 94% 0in /  0.0mm 0 W/m2
23:36 57.4 °F /  14.1 °C 55.6 °F /  13.1 °C 30in /  1017.3hPa NE 0.9mph /  1.4km/h 2mph /  3.2km/h 94% 0in /  0.0mm 0 W/m2
23:41 57.4 °F /  14.1 °C 55.6 °F /  13.1 °C 30in /  1017.3hPa Calm   2mph /  3.2km/h 94% 0in /  0.0mm 0 W/m2
23:46 57.4 °F /  14.1 °C 55.6 °F /  13.1 °C 30in /  1017.3hPa North 0.9mph /  1.4km/h 1mph /  1.6km/h 94% 0in /  0.0mm 0 W/m2
23:51 57.6 °F /  14.2 °C 55.8 °F /  13.2 °C 30in /  1017.3hPa Calm   1mph /  1.6km/h 94% 0in /  0.0mm 0 W/m2
23:56 57.4 °F /  14.1 °C 55.6 °F /  13.1 °C 30in /  1017.3hPa Calm     94% 0in /  0.0mm 0 W/m2
Juneau County Weather
Compliments of Weather Underground - 4 mb